createdAt,value
2023-04-02T00:02:33.317Z,99237.22
2023-04-02T00:05:51.256Z,99242.00
2023-04-02T00:08:56.365Z,99242.78
2023-04-02T00:12:15.572Z,99245.91
2023-04-02T00:15:45.908Z,99239.81
2023-04-02T00:19:19.567Z,99256.75
2023-04-02T00:22:44.981Z,99257.34
2023-04-02T00:26:23.083Z,99268.47
2023-04-02T00:29:50.739Z,99266.00
2023-04-02T00:32:55.211Z,99270.66
2023-04-02T00:36:00.384Z,99265.94
2023-04-02T00:39:33.166Z,99269.56
2023-04-02T00:43:04.389Z,99279.81
2023-04-02T00:46:14.613Z,99275.47
2023-04-02T00:49:42.015Z,99278.13
2023-04-02T00:52:52.339Z,99274.28
2023-04-02T00:56:25.475Z,99271.16
2023-04-02T00:59:33.450Z,99268.97
2023-04-02T01:03:29.121Z,99269.34
2023-04-02T01:06:54.479Z,99258.12
2023-04-02T01:10:32.534Z,99257.34
2023-04-02T01:13:48.638Z,99258.53
2023-04-02T01:17:31.696Z,99265.91
2023-04-02T01:21:01.861Z,99257.34
2023-04-02T01:24:14.656Z,99260.88
2023-04-02T01:27:45.796Z,99273.31
2023-04-02T01:31:10.719Z,99274.06
2023-04-02T01:34:35.212Z,99265.00
2023-04-02T01:37:59.420Z,99265.12
2023-04-02T01:41:17.278Z,99267.66
2023-04-02T01:44:44.907Z,99263.81
2023-04-02T01:48:19.952Z,99264.72
2023-04-02T01:51:34.547Z,99269.72
2023-04-02T01:54:44.529Z,99269.94
2023-04-02T01:57:52.012Z,99266.88
2023-04-02T02:01:08.499Z,99272.00
2023-04-02T02:04:14.049Z,99274.28
2023-04-02T02:07:21.741Z,99268.56
2023-04-02T02:10:35.497Z,99275.44
2023-04-02T02:16:45.577Z,99267.88
2023-04-02T02:19:55.688Z,99257.50
2023-04-02T02:23:00.199Z,99265.41
2023-04-02T02:26:48.686Z,99268.06
2023-04-02T02:29:56.613Z,99274.38
2023-04-02T02:33:28.970Z,99269.66
2023-04-02T02:37:07.100Z,99267.00
2023-04-02T02:40:32.077Z,99271.16
2023-04-02T02:43:42.138Z,99272.22
2023-04-02T02:46:50.019Z,99274.38
2023-04-02T02:49:58.933Z,99273.69
2023-04-02T02:53:24.613Z,99288.16
2023-04-02T02:56:55.920Z,99286.16
2023-04-02T03:00:01.731Z,99285.59
2023-04-02T03:03:11.606Z,99284.09
2023-04-02T03:06:20.772Z,99279.88
2023-04-02T05:12:01.451Z,99366.09
2023-04-02T05:15:18.882Z,99375.78
2023-04-02T05:18:37.933Z,99379.84
2023-04-02T06:09:06.334Z,99379.16
2023-04-02T06:12:19.291Z,99379.09
2023-04-02T06:15:24.341Z,99386.72
2023-04-02T06:18:31.259Z,99389.69
2023-04-02T06:22:00.764Z,99395.09
2023-04-02T06:25:23.556Z,99396.41
2023-04-02T06:28:52.001Z,99399.72
2023-04-02T06:32:02.180Z,99411.22
2023-04-02T06:35:05.572Z,99418.91
2023-04-02T06:38:25.567Z,99411.09
2023-04-02T06:41:29.357Z,99414.72
2023-04-02T06:44:37.165Z,99420.06
2023-04-02T06:47:51.893Z,99421.56
2023-04-02T06:51:05.532Z,99431.31
2023-04-02T06:54:15.095Z,99433.03
2023-04-02T06:57:18.633Z,99428.78
2023-04-02T07:00:47.149Z,99434.81
2023-04-02T07:04:10.354Z,99438.25
2023-04-02T07:07:13.689Z,99432.97
2023-04-02T07:10:37.646Z,99439.56
2023-04-02T07:13:40.813Z,99440.75
2023-04-02T07:16:44.662Z,99444.72
2023-04-02T07:20:26.203Z,99448.97
2023-04-02T07:23:30.799Z,99450.25
2023-04-02T07:26:33.558Z,99458.34
2023-04-02T07:29:42.463Z,99468.06
2023-04-02T07:32:45.935Z,99455.81
2023-04-02T07:35:50.802Z,99465.75
2023-04-02T07:38:53.843Z,99462.50
2023-04-02T07:42:04.741Z,99466.38
2023-04-02T07:45:08.192Z,99470.31
2023-04-02T07:48:14.046Z,99468.44
2023-04-02T07:51:25.915Z,99469.78
2023-04-02T07:54:30.406Z,99474.50
2023-04-02T07:57:33.281Z,99488.00
2023-04-02T08:00:38.735Z,99488.50
2023-04-02T08:03:42.032Z,99484.53
2023-04-02T08:06:44.876Z,99489.41
2023-04-02T08:10:10.992Z,99493.72
2023-04-02T08:13:14.562Z,99489.31
2023-04-02T08:16:17.888Z,99495.72
2023-04-02T08:19:21.118Z,99492.97
2023-04-02T08:22:24.618Z,99497.87
2023-04-02T08:25:28.082Z,99501.88
2023-04-02T08:28:31.082Z,99498.94
2023-04-02T08:31:33.822Z,99510.56
2023-04-02T08:34:36.879Z,99505.25
2023-04-02T08:37:39.658Z,99512.38
2023-04-02T08:40:50.561Z,99511.56
2023-04-02T08:44:00.009Z,99514.22
2023-04-02T08:47:06.651Z,99518.22
2023-04-02T08:50:30.295Z,99520.78
2023-04-02T08:53:38.946Z,99524.38
2023-04-02T08:57:19.462Z,99525.56
2023-04-02T09:00:26.496Z,99525.75
2023-04-02T09:03:35.565Z,99536.41
2023-04-02T09:06:39.094Z,99523.88
2023-04-02T09:09:41.988Z,99531.91
2023-04-02T09:12:52.748Z,99536.50
2023-04-02T09:16:13.393Z,99537.34
2023-04-02T09:19:37.097Z,99528.44
2023-04-02T09:22:40.147Z,99534.94
2023-04-02T09:26:02.926Z,99531.91
2023-04-02T09:29:16.245Z,99531.66
2023-04-02T09:32:24.400Z,99546.34
2023-04-02T09:35:29.961Z,99546.25
2023-04-02T09:38:33.200Z,99539.16
2023-04-02T09:41:39.543Z,99541.84
2023-04-02T09:44:44.508Z,99539.47
2023-04-02T09:47:47.987Z,99543.78
2023-04-02T09:51:03.342Z,99547.12
2023-04-02T09:54:13.713Z,99556.63
2023-04-02T09:57:25.368Z,99557.47
2023-04-02T10:00:32.148Z,99557.91
2023-04-02T10:03:37.203Z,99559.91
2023-04-02T10:06:50.318Z,99560.13
2023-04-02T10:10:01.257Z,99563.25
2023-04-02T10:13:18.885Z,99560.88
2023-04-02T10:16:27.598Z,99555.97
2023-04-02T10:19:38.848Z,99553.13
2023-04-02T10:22:42.504Z,99553.38
2023-04-02T10:25:57.628Z,99554.84
2023-04-02T10:29:23.233Z,99541.63
2023-04-02T10:33:01.179Z,99550.41
2023-04-02T10:36:22.896Z,99552.81
2023-04-02T10:39:37.027Z,99559.94
2023-04-02T10:43:03.415Z,99555.19
2023-04-02T10:46:06.295Z,99557.63
2023-04-02T10:49:16.867Z,99557.94
2023-04-02T10:52:43.836Z,99553.63
2023-04-02T10:56:02.644Z,99554.50
2023-04-02T10:59:11.776Z,99563.03
2023-04-02T11:02:30.111Z,99560.00
2023-04-02T11:05:40.418Z,99556.84
2023-04-02T11:08:46.845Z,99557.22
2023-04-02T11:11:53.819Z,99541.00
2023-04-02T11:14:57.529Z,99549.22
2023-04-02T11:18:00.365Z,99541.44
2023-04-02T11:21:28.515Z,99548.03
2023-04-02T11:24:34.079Z,99545.16
2023-04-02T11:28:32.877Z,99535.94
2023-04-02T11:31:36.268Z,99549.84
2023-04-02T11:35:03.105Z,99551.22
2023-04-02T11:38:11.861Z,99553.19
2023-04-02T11:41:34.737Z,99546.34
2023-04-02T11:45:21.080Z,99552.19
2023-04-02T11:48:40.997Z,99556.53
2023-04-02T11:51:54.369Z,99549.78
2023-04-02T14:10:07.708Z,99510.56
2023-04-02T14:13:25.418Z,99507.63
2023-04-02T14:17:06.916Z,99515.28
2023-04-02T14:20:26.841Z,99514.88
2023-04-02T14:23:57.896Z,99519.56
2023-04-02T14:27:23.040Z,99504.81
2023-04-02T14:30:43.825Z,99515.88
2023-04-02T14:34:03.508Z,99507.84
2023-04-02T14:37:17.642Z,99522.19
2023-04-02T14:40:37.888Z,99514.84
2023-04-02T14:43:57.844Z,99515.50
2023-04-02T14:47:16.789Z,99527.13
2023-04-02T14:50:29.794Z,99535.78
2023-04-02T14:53:45.794Z,99541.22
2023-04-02T14:57:16.861Z,99539.69
2023-04-02T15:00:43.530Z,99546.97
2023-04-02T15:03:59.537Z,99548.38
2023-04-02T15:07:21.682Z,99563.50
2023-04-02T15:10:48.957Z,99560.19
2023-04-02T15:14:01.473Z,99549.69
2023-04-02T15:17:04.252Z,99557.06
2023-04-02T15:20:17.568Z,99546.38
2023-04-02T15:23:31.473Z,99552.22
2023-04-02T15:27:00.608Z,99561.97
2023-04-02T15:30:44.221Z,99550.75
2023-04-02T15:34:02.479Z,99548.22
2023-04-02T15:37:18.227Z,99553.72
2023-04-02T15:40:54.068Z,99555.81
2023-04-02T15:44:02.138Z,99562.22
2023-04-02T15:47:35.622Z,99569.88
2023-04-02T15:50:54.229Z,99565.47
2023-04-02T15:54:21.818Z,99569.03
2023-04-02T15:57:43.176Z,99567.47
2023-04-02T16:01:14.610Z,99573.00
2023-04-02T16:04:19.553Z,99582.31
2023-04-02T16:08:00.990Z,99588.94
2023-04-02T16:11:15.099Z,99590.69
2023-04-02T16:14:30.027Z,99596.34
2023-04-02T16:18:06.712Z,99601.38
2023-04-02T16:21:17.044Z,99598.31
2023-04-02T16:24:21.336Z,99611.84
2023-04-02T16:27:54.138Z,99610.22
2023-04-02T16:31:23.548Z,99611.94
2023-04-02T16:34:36.674Z,99614.25
2023-04-02T16:37:46.279Z,99619.25
2023-04-02T16:41:07.793Z,99620.63
2023-04-02T16:44:37.274Z,99623.56
2023-04-02T16:48:07.978Z,99630.03
2023-04-02T16:51:40.316Z,99635.87
2023-04-02T16:55:24.443Z,99631.91
2023-04-02T16:58:45.914Z,99641.38
2023-04-02T17:02:24.239Z,99649.63
2023-04-02T17:05:34.304Z,99656.44
2023-04-02T17:08:57.577Z,99659.63
2023-04-02T17:12:16.382Z,99664.09
2023-04-02T17:15:27.659Z,99676.75
2023-04-02T17:18:46.200Z,99683.16
2023-04-02T17:21:53.360Z,99677.03
2023-04-02T17:25:17.888Z,99696.09
2023-04-02T17:28:40.080Z,99691.78
2023-04-02T17:31:45.983Z,99694.09
2023-04-02T17:34:49.691Z,99701.97
2023-04-02T17:38:04.487Z,99707.53
2023-04-02T17:41:49.285Z,99716.53
2023-04-02T17:45:25.363Z,99721.06
2023-04-02T17:48:45.884Z,99730.56
2023-04-02T17:52:00.970Z,99738.75
2023-04-02T17:55:25.890Z,99745.31
2023-04-02T17:58:47.281Z,99753.19
2023-04-02T18:02:02.485Z,99763.69
2023-04-02T19:41:52.219Z,99909.00
2023-04-02T19:45:04.234Z,99916.09
2023-04-02T19:48:20.272Z,99909.72
2023-04-02T19:51:27.246Z,99922.88
2023-04-02T19:54:31.418Z,99925.19
2023-04-02T19:57:36.481Z,99927.94
2023-04-02T20:00:59.182Z,99923.56
2023-04-02T20:04:03.718Z,99940.75
2023-04-02T20:07:06.380Z,99940.13
2023-04-02T20:10:10.511Z,99933.22
2023-04-02T20:13:23.653Z,99941.84
2023-04-02T20:16:30.243Z,99950.06
2023-04-02T20:19:36.595Z,99951.62
2023-04-02T20:22:39.483Z,99952.69
2023-04-02T20:25:53.247Z,99961.94
2023-04-02T20:28:56.746Z,99964.84
2023-04-02T20:32:18.822Z,99960.16
2023-04-02T20:35:31.046Z,99975.00
2023-04-02T20:38:35.167Z,99982.66
2023-04-02T20:41:38.265Z,99979.53
2023-04-02T20:44:41.554Z,99984.28
2023-04-02T20:47:44.615Z,99988.16
2023-04-02T20:50:49.192Z,99984.78
2023-04-02T20:54:11.494Z,99986.66
2023-04-02T20:57:14.453Z,99996.94
2023-04-02T21:00:18.616Z,99997.22
2023-04-02T21:03:21.954Z,99988.44
2023-04-02T21:06:29.635Z,99994.78
2023-04-02T21:09:32.447Z,99989.25
2023-04-02T21:12:35.849Z,99993.41
2023-04-02T21:15:42.946Z,100000.84
2023-04-02T21:18:58.601Z,100000.81
2023-04-02T21:22:01.449Z,100008.22
2023-04-02T21:25:04.910Z,100011.91
2023-04-02T21:28:07.973Z,100015.69
2023-04-02T21:31:14.780Z,100016.41
2023-04-02T21:34:17.592Z,100021.75
2023-04-02T21:37:23.021Z,100016.72
2023-04-02T21:40:28.004Z,100027.06
2023-04-02T21:43:31.179Z,100020.16
2023-04-02T21:46:39.058Z,100024.13
2023-04-02T21:49:47.009Z,100032.81
2023-04-02T21:52:52.810Z,100033.63
2023-04-02T21:56:04.839Z,100026.19
2023-04-02T21:59:13.165Z,100038.47
2023-04-02T22:02:16.800Z,100042.44
2023-04-02T22:05:19.863Z,100056.16
2023-04-02T22:08:22.950Z,100053.72
2023-04-02T22:11:33.272Z,100053.78
2023-04-02T22:14:35.986Z,100062.78
2023-04-02T22:18:19.001Z,100056.31
2023-04-02T22:21:22.674Z,100056.91
2023-04-02T22:24:27.702Z,100061.63
2023-04-02T22:27:52.289Z,100065.28
2023-04-02T22:31:08.449Z,100073.56
2023-04-02T22:34:11.783Z,100063.44
2023-04-02T22:37:18.362Z,100072.53
2023-04-02T22:40:23.193Z,100074.28
2023-04-02T22:43:27.734Z,100087.06
2023-04-02T22:46:31.137Z,100085.94
2023-04-02T22:49:34.936Z,100091.41
2023-04-02T22:52:38.398Z,100089.00
2023-04-02T22:55:41.592Z,100104.63
2023-04-02T22:58:45.127Z,100107.03
2023-04-02T23:01:48.905Z,100107.75
2023-04-02T23:04:51.778Z,100116.16
2023-04-02T23:07:54.942Z,100118.06
2023-04-02T23:11:27.393Z,100126.53
2023-04-02T23:14:34.149Z,100125.13
2023-04-02T23:17:37.888Z,100125.34
2023-04-02T23:20:41.537Z,100131.19
2023-04-02T23:23:45.731Z,100130.75
2023-04-02T23:26:49.016Z,100124.59
2023-04-02T23:29:52.476Z,100130.56
2023-04-02T23:32:56.090Z,100133.25
2023-04-02T23:35:59.871Z,100135.78
2023-04-02T23:39:10.551Z,100137.47
2023-04-02T23:42:13.764Z,100143.16
2023-04-02T23:45:17.633Z,100148.53
2023-04-02T23:48:20.730Z,100145.13
2023-04-02T23:51:26.051Z,100137.19
2023-04-02T23:54:29.049Z,100149.41
2023-04-02T23:57:35.676Z,100152.06
